Time;durP1;ratioP1;P1;durP2;ratioP2;P2;SDS_P1;SDS_P2;PMS_P1;PMS_P2;Temp;Humidity;BMP_temperature;BMP_pressure;BME280_temperature;BME280_humidity;BME280_pressure;Samples;Min_cycle;Max_cycle;Signal;HPM_P1;HPM_P2
2023/10/23 00:02:24;;;;;;;10.40;2.90;;;;;;;10.37;100.00;101241.16;5207480;28;20045;-79
2023/10/23 00:04:55;;;;;;;9.07;3.20;;;;;;;10.37;100.00;101243.00;5205640;28;20025;-79
2023/10/23 00:07:25;;;;;;;4.75;2.60;;;;;;;10.40;100.00;101247.25;5207966;28;20029;-79
2023/10/23 00:09:56;;;;;;;7.15;3.00;;;;;;;10.43;100.00;101244.22;5201034;28;20021;-79
2023/10/23 00:12:26;;;;;;;10.13;3.42;;;;;;;10.45;100.00;101244.94;5205934;28;20017;-79
2023/10/23 00:14:57;;;;;;;8.40;3.58;;;;;;;10.47;100.00;101250.97;5199298;28;20333;-78
2023/10/23 00:17:27;;;;;;;10.55;3.33;;;;;;;10.40;100.00;101253.44;5202865;28;20041;-79
2023/10/23 00:19:58;;;;;;;9.18;3.65;;;;;;;10.30;100.00;101252.69;5201298;28;20423;-79
2023/10/23 00:22:28;;;;;;;7.18;3.42;;;;;;;10.20;100.00;101249.22;5201742;28;20052;-79
2023/10/23 00:24:59;;;;;;;6.22;2.85;;;;;;;10.15;100.00;101249.66;5200361;28;20086;-79
2023/10/23 00:27:29;;;;;;;65.90;5.47;;;;;;;10.08;100.00;101254.78;5204054;28;20089;-78
2023/10/23 00:30:00;;;;;;;92.03;6.32;;;;;;;10.03;100.00;101254.41;5199415;28;20021;-78
2023/10/23 00:32:31;;;;;;;37.63;3.88;;;;;;;9.96;100.00;101261.38;5204752;28;20029;-78
2023/10/23 00:35:01;;;;;;;23.27;3.05;;;;;;;9.92;100.00;101264.50;5197823;28;20029;-78
2023/10/23 00:37:34;;;;;;;70.03;3.78;;;;;;;9.88;100.00;101263.13;5205792;28;20041;-79
2023/10/23 00:40:05;;;;;;;3.78;1.65;;;;;;;9.83;100.00;101267.09;5206273;28;20049;-79
2023/10/23 00:42:36;;;;;;;8.77;3.80;;;;;;;9.82;100.00;101257.38;5190631;28;20029;-79
2023/10/23 00:45:07;;;;;;;12.55;3.80;;;;;;;9.83;100.00;101264.41;5203335;28;20009;-78
2023/10/23 00:47:37;;;;;;;6.30;3.22;;;;;;;9.79;100.00;101263.06;5205703;28;20033;-78
2023/10/23 00:50:08;;;;;;;7.78;3.17;;;;;;;9.76;100.00;101257.16;5202826;28;20483;-78
2023/10/23 00:52:39;;;;;;;10.15;3.20;;;;;;;9.79;100.00;101254.19;5201569;28;20108;-79
2023/10/23 00:55:11;;;;;;;13.07;3.60;;;;;;;9.81;100.00;101265.56;5202091;28;20021;-78
2023/10/23 00:57:41;;;;;;;7.32;3.55;;;;;;;9.79;100.00;101256.84;5196258;28;20037;-78
2023/10/23 01:00:13;;;;;;;8.40;4.28;;;;;;;9.77;100.00;101259.66;5200817;28;20037;-79
2023/10/23 01:02:43;;;;;;;7.30;3.58;;;;;;;9.76;100.00;101262.50;5187681;28;20021;-78
2023/10/23 01:05:14;;;;;;;7.25;3.78;;;;;;;9.73;100.00;101252.91;5196037;28;20017;-78
2023/10/23 01:07:44;;;;;;;7.82;3.63;;;;;;;9.69;100.00;101256.03;5197892;28;20471;-79
2023/10/23 01:10:15;;;;;;;12.48;3.83;;;;;;;9.67;100.00;101250.00;5200972;28;20041;-79
2023/10/23 01:12:45;;;;;;;15.45;4.25;;;;;;;9.66;100.00;101254.53;5199066;28;20115;-79
2023/10/23 01:15:16;;;;;;;6.60;3.47;;;;;;;9.65;100.00;101258.19;5200793;28;20013;-78
2023/10/23 01:17:48;;;;;;;6.90;3.00;;;;;;;9.59;100.00;101265.00;5205252;28;20024;-79
2023/10/23 01:20:20;;;;;;;10.07;3.60;;;;;;;9.62;100.00;101265.69;5200711;28;20014;-78
2023/10/23 01:22:55;;;;;;;8.10;4.03;;;;;;;9.57;100.00;101266.97;5203206;28;20044;-80
2023/10/23 01:25:27;;;;;;;11.05;4.57;;;;;;;9.54;100.00;101267.28;5194520;28;20013;-81
2023/10/23 01:27:57;;;;;;;65.97;8.15;;;;;;;9.49;100.00;101272.25;5203246;28;20033;-80
2023/10/23 01:30:28;;;;;;;14.25;5.18;;;;;;;9.44;100.00;101273.66;5199265;28;20435;-80
2023/10/23 01:32:59;;;;;;;12.43;5.45;;;;;;;9.41;100.00;101268.63;5205975;28;20031;-79
2023/10/23 01:35:29;;;;;;;10.05;4.10;;;;;;;9.43;100.00;101263.94;5206322;28;20030;-78
2023/10/23 01:38:00;;;;;;;9.50;4.10;;;;;;;9.44;100.00;101260.28;5205338;28;20021;-78
2023/10/23 01:40:30;;;;;;;10.70;4.18;;;;;;;9.42;100.00;101249.72;5206374;28;20025;-79
2023/10/23 01:43:01;;;;;;;10.52;3.92;;;;;;;9.39;100.00;101257.19;5201657;28;20033;-78
2023/10/23 01:45:31;;;;;;;14.55;4.38;;;;;;;9.37;100.00;101264.56;5206818;28;20071;-79
2023/10/23 01:48:02;;;;;;;9.00;3.17;;;;;;;9.30;100.00;101262.47;5204179;28;20022;-79
2023/10/23 01:50:33;;;;;;;33.28;6.22;;;;;;;9.28;100.00;101260.91;5201763;28;20018;-79
2023/10/23 01:53:03;;;;;;;9.60;3.72;;;;;;;9.24;100.00;101264.91;5202111;28;20025;-78
2023/10/23 01:55:35;;;;;;;10.23;3.83;;;;;;;9.31;100.00;101260.63;5202363;28;20480;-78
2023/10/23 01:58:06;;;;;;;15.05;4.18;;;;;;;9.36;100.00;101255.69;5205246;28;20029;-79
2023/10/23 02:00:37;;;;;;;10.38;3.67;;;;;;;9.31;100.00;101269.50;5200429;28;20029;-80
2023/10/23 02:03:07;;;;;;;11.20;3.60;;;;;;;9.29;100.00;101265.31;5205926;28;20491;-78
2023/10/23 02:05:38;;;;;;;9.10;4.20;;;;;;;9.27;100.00;101260.06;5185128;28;20047;-79
2023/10/23 02:08:08;;;;;;;5.75;3.47;;;;;;;9.25;100.00;101263.91;5201074;28;20024;-79
2023/10/23 02:10:39;;;;;;;6.95;3.30;;;;;;;9.29;100.00;101259.94;5200931;28;20040;-79
2023/10/23 02:13:10;;;;;;;13.15;4.72;;;;;;;9.30;100.00;101264.31;5201463;28;20022;-80
2023/10/23 02:15:41;;;;;;;12.32;4.25;;;;;;;9.23;100.00;101268.53;5199837;28;20515;-80
2023/10/23 02:18:12;;;;;;;123.55;8.43;;;;;;;9.15;100.00;101263.09;5203780;28;20506;-79
2023/10/23 02:20:43;;;;;;;9.98;4.25;;;;;;;9.13;100.00;101257.88;5209700;28;20108;-79
2023/10/23 02:23:13;;;;;;;6.75;3.40;;;;;;;9.14;100.00;101264.09;5208078;28;20120;-79
2023/10/23 02:25:44;;;;;;;6.07;3.30;;;;;;;9.12;100.00;101261.53;5207165;28;20025;-79
2023/10/23 02:28:14;;;;;;;6.63;2.60;;;;;;;9.10;100.00;101255.50;5204920;28;20025;-79
2023/10/23 02:30:45;;;;;;;30.35;3.85;;;;;;;9.15;100.00;101258.59;5202896;28;20021;-79
2023/10/23 02:33:15;;;;;;;7.97;2.80;;;;;;;9.17;100.00;101264.63;5201643;28;20087;-80
2023/10/23 02:35:46;;;;;;;16.65;4.22;;;;;;;9.18;100.00;101262.78;5207473;28;20037;-79
2023/10/23 02:38:16;;;;;;;27.75;4.68;;;;;;;9.19;100.00;101267.19;5204343;28;20060;-80
2023/10/23 02:40:53;;;;;;;8.55;3.88;;;;;;;9.15;100.00;101263.94;5206381;28;20021;-80
2023/10/23 02:43:24;;;;;;;9.95;3.90;;;;;;;9.15;100.00;101257.75;5205083;28;20551;-78
2023/10/23 02:45:54;;;;;;;8.02;3.63;;;;;;;9.11;100.00;101265.22;5200801;28;20109;-78
2023/10/23 02:48:25;;;;;;;13.02;4.10;;;;;;;9.11;100.00;101256.34;5204833;28;20087;-79
2023/10/23 02:50:56;;;;;;;14.95;4.10;;;;;;;9.10;100.00;101263.53;5203365;28;20037;-79
2023/10/23 02:53:26;;;;;;;43.45;6.05;;;;;;;9.15;100.00;101265.78;5208001;28;20029;-78
2023/10/23 02:55:57;;;;;;;10.55;3.40;;;;;;;9.12;100.00;101266.06;5205403;28;20472;-80
2023/10/23 02:58:27;;;;;;;10.45;3.00;;;;;;;9.09;100.00;101264.53;5207347;28;20029;-78
2023/10/23 03:00:58;;;;;;;9.50;3.25;;;;;;;9.08;100.00;101262.81;5205702;28;20040;-79
2023/10/23 03:03:29;;;;;;;10.73;3.25;;;;;;;9.06;100.00;101262.97;5207871;28;20021;-79
2023/10/23 03:05:59;;;;;;;7.18;3.00;;;;;;;9.03;100.00;101259.75;5207255;28;20083;-78
2023/10/23 03:08:29;;;;;;;62.05;4.78;;;;;;;8.95;100.00;101268.50;5200805;28;20079;-78
2023/10/23 03:11:00;;;;;;;7.65;2.13;;;;;;;8.91;100.00;101267.13;5202793;28;20029;-78
2023/10/23 03:13:32;;;;;;;6.90;2.78;;;;;;;8.88;100.00;101262.03;5203125;28;20022;-78
2023/10/23 03:16:03;;;;;;;14.02;3.30;;;;;;;8.89;100.00;101269.09;5202124;28;20420;-78
2023/10/23 03:18:33;;;;;;;18.40;3.00;;;;;;;8.87;100.00;101270.22;5204391;28;20132;-80
2023/10/23 03:21:04;;;;;;;4.32;2.85;;;;;;;8.81;100.00;101266.28;5206400;28;20032;-80
2023/10/23 03:23:35;;;;;;;4.45;1.90;;;;;;;8.80;100.00;101260.09;5199388;28;20022;-79
2023/10/23 03:26:06;;;;;;;4.43;2.45;;;;;;;8.81;100.00;101260.94;5202077;28;20519;-78
2023/10/23 03:28:36;;;;;;;17.05;2.85;;;;;;;8.77;100.00;101255.03;5207844;28;20092;-79
2023/10/23 03:31:07;;;;;;;11.80;2.25;;;;;;;8.73;100.00;101260.81;5203862;28;20033;-79
2023/10/23 03:33:37;;;;;;;4.07;1.92;;;;;;;8.70;100.00;101258.44;5206343;28;20033;-78
2023/10/23 03:36:08;;;;;;;14.50;2.78;;;;;;;8.67;100.00;101269.41;5205363;28;20018;-79
2023/10/23 03:38:38;;;;;;;8.77;2.20;;;;;;;8.64;100.00;101275.06;5206287;28;20555;-80
2023/10/23 03:41:09;;;;;;;7.22;2.38;;;;;;;8.57;100.00;101272.94;5203186;28;20025;-78
2023/10/23 03:43:40;;;;;;;14.15;1.92;;;;;;;8.54;100.00;101286.63;5198057;28;20040;-78
2023/10/23 03:46:11;;;;;;;5.28;2.30;;;;;;;8.51;100.00;101281.53;5206188;28;20019;-79
2023/10/23 03:48:41;;;;;;;10.10;2.63;;;;;;;8.55;100.00;101284.78;5205382;28;20037;-79
2023/10/23 03:51:12;;;;;;;7.30;2.70;;;;;;;8.52;100.00;101282.38;5193235;28;20104;-81
2023/10/23 03:53:43;;;;;;;8.75;3.17;;;;;;;8.48;100.00;101276.50;5202839;28;20036;-80
2023/10/23 03:56:13;;;;;;;9.38;2.50;;;;;;;8.46;100.00;101282.97;5206120;28;20025;-80
2023/10/23 03:58:44;;;;;;;5.90;2.47;;;;;;;8.45;100.00;101281.28;5208328;28;20030;-80
2023/10/23 04:01:15;;;;;;;9.55;2.85;;;;;;;8.43;100.00;101273.38;5206393;28;20508;-80
2023/10/23 04:03:46;;;;;;;6.07;2.42;;;;;;;8.50;100.00;101279.88;5195228;28;20090;-81
2023/10/23 04:06:16;;;;;;;6.32;2.90;;;;;;;8.54;100.00;101275.09;5200858;28;20013;-79
2023/10/23 04:08:51;;;;;;;12.30;3.20;;;;;;;8.59;100.00;101272.81;5204795;28;20080;-80
2023/10/23 04:11:22;;;;;;;6.15;2.72;;;;;;;8.55;100.00;101268.75;5203208;28;20029;-80
2023/10/23 04:13:52;;;;;;;8.73;3.33;;;;;;;8.55;100.00;101266.91;5200997;28;20025;-80
2023/10/23 04:16:23;;;;;;;12.13;3.63;;;;;;;8.51;100.00;101272.69;5208365;28;20198;-79
2023/10/23 04:18:53;;;;;;;7.00;3.63;;;;;;;8.48;100.00;101273.84;5207917;28;20395;-80
2023/10/23 04:21:24;;;;;;;12.50;4.03;;;;;;;8.46;100.00;101270.44;5203889;28;20507;-79
2023/10/23 04:23:54;;;;;;;8.07;3.25;;;;;;;8.43;100.00;101267.19;5191286;28;20026;-81
2023/10/23 04:26:25;;;;;;;10.75;3.42;;;;;;;8.41;100.00;101267.34;5206661;28;20199;-79
2023/10/23 04:28:55;;;;;;;13.77;3.00;;;;;;;8.38;100.00;101261.44;5205589;28;20029;-80
2023/10/23 04:31:27;;;;;;;4.63;2.40;;;;;;;8.36;100.00;101266.94;5201554;28;20025;-81
2023/10/23 04:33:57;;;;;;;9.65;2.70;;;;;;;8.37;100.00;101268.59;5189832;28;20030;-81
2023/10/23 04:36:28;;;;;;;7.60;3.20;;;;;;;8.35;100.00;101259.03;5205467;28;20029;-81
2023/10/23 04:38:58;;;;;;;6.32;3.17;;;;;;;8.30;100.00;101257.63;5198298;28;20209;-81
2023/10/23 04:41:29;;;;;;;9.38;3.35;;;;;;;8.25;100.00;101254.53;5201851;28;20088;-81
2023/10/23 04:43:59;;;;;;;11.65;3.60;;;;;;;8.26;100.00;101258.88;5186607;28;20266;-81
2023/10/23 04:46:29;;;;;;;18.33;3.53;;;;;;;8.24;100.00;101258.19;5202411;28;20029;-82
2023/10/23 04:49:00;;;;;;;28.17;4.28;;;;;;;8.22;100.00;101257.47;5202022;28;20116;-82
2023/10/23 04:51:33;;;;;;;16.83;2.20;;;;;;;8.20;100.00;101255.94;5200955;28;20075;-82
2023/10/23 04:54:04;;;;;;;8.52;2.20;;;;;;;8.17;100.00;101251.69;5200110;28;20395;-79
2023/10/23 04:56:34;;;;;;;17.63;3.10;;;;;;;8.17;100.00;101258.88;5205801;28;20025;-80
2023/10/23 04:59:05;;;;;;;27.98;3.13;;;;;;;8.16;100.00;101254.53;5202949;28;20032;-80
2023/10/23 05:01:35;;;;;;;20.63;3.15;;;;;;;8.14;100.00;101251.16;5203854;28;20030;-81
2023/10/23 05:04:06;;;;;;;17.48;3.28;;;;;;;8.12;100.00;101251.28;5200215;28;20029;-82
2023/10/23 05:06:36;;;;;;;4.32;2.67;;;;;;;8.15;100.00;101250.16;5204509;28;20036;-81
2023/10/23 05:09:07;;;;;;;7.45;3.65;;;;;;;8.12;100.00;101245.94;5198765;28;20025;-80
2023/10/23 05:11:37;;;;;;;14.20;3.35;;;;;;;8.10;100.00;101253.25;5203264;28;20062;-81
2023/10/23 05:14:08;;;;;;;9.07;2.78;;;;;;;8.07;100.00;101250.84;5200219;28;20033;-83
2023/10/23 05:16:38;;;;;;;6.93;3.00;;;;;;;8.07;100.00;101253.53;5186334;28;20514;-81
2023/10/23 05:19:09;;;;;;;21.63;4.45;;;;;;;8.09;100.00;101248.06;5178373;28;20484;-80
2023/10/23 05:21:40;;;;;;;12.93;3.90;;;;;;;8.05;100.00;101242.97;5191241;28;20033;-81
2023/10/23 05:24:10;;;;;;;22.35;2.92;;;;;;;8.06;100.00;101246.50;5187202;28;20403;-80
2023/10/23 05:26:41;;;;;;;17.20;2.92;;;;;;;8.06;100.00;101249.16;5204417;28;20021;-82
2023/10/23 05:29:11;;;;;;;7.75;2.88;;;;;;;8.08;100.00;101239.16;5207261;28;20041;-80
2023/10/23 05:31:42;;;;;;;13.40;2.80;;;;;;;8.08;100.00;101238.34;5205759;28;20029;-79
2023/10/23 05:34:13;;;;;;;9.27;3.10;;;;;;;8.05;100.00;101244.81;5202075;28;21355;-79
2023/10/23 05:36:44;;;;;;;6.18;2.33;;;;;;;8.03;100.00;101236.06;5206682;28;20144;-80
2023/10/23 05:39:14;;;;;;;6.95;2.80;;;;;;;8.00;100.00;101239.88;5185367;28;20034;-82
2023/10/23 05:41:45;;;;;;;7.57;2.72;;;;;;;7.99;100.00;101238.22;5207464;28;20031;-79
2023/10/23 05:44:16;;;;;;;3.35;1.90;;;;;;;8.02;100.00;101237.06;5204355;28;20022;-79
2023/10/23 05:46:46;;;;;;;55.67;4.55;;;;;;;8.01;100.00;101228.22;5186208;28;20029;-80
2023/10/23 05:49:16;;;;;;;6.20;2.03;;;;;;;7.93;100.00;101222.75;5205181;28;20089;-80
2023/10/23 05:51:47;;;;;;;12.75;2.40;;;;;;;7.87;100.00;101220.59;5207402;28;20029;-81
2023/10/23 05:54:18;;;;;;;10.77;2.92;;;;;;;7.79;100.00;101231.16;5208209;28;20104;-79
2023/10/23 05:56:48;;;;;;;10.82;3.97;;;;;;;7.75;100.00;101238.59;5206801;28;20026;-79
2023/10/23 05:59:20;;;;;;;11.00;3.13;;;;;;;7.71;100.00;101245.19;5201381;28;20394;-80
2023/10/23 06:01:51;;;;;;;11.27;4.25;;;;;;;7.69;100.00;101231.16;5200393;28;20557;-83
2023/10/23 06:04:22;;;;;;;12.85;4.40;;;;;;;7.76;100.00;101229.59;5198090;28;20043;-77
2023/10/23 06:06:53;;;;;;;15.50;4.13;;;;;;;7.85;100.00;101230.59;5200452;28;20025;-79
2023/10/23 06:09:23;;;;;;;13.45;4.45;;;;;;;7.88;100.00;101225.00;5194849;28;20087;-79
2023/10/23 06:11:54;;;;;;;17.13;5.85;;;;;;;7.92;100.00;101229.03;5196386;28;20036;-82
2023/10/23 06:14:25;;;;;;;13.00;4.53;;;;;;;7.94;100.00;101243.13;5176831;28;20620;-78
2023/10/23 06:16:56;;;;;;;50.42;5.28;;;;;;;7.93;100.00;101241.44;5197519;28;20025;-78
2023/10/23 06:19:27;;;;;;;42.22;4.55;;;;;;;7.89;100.00;101226.69;5181264;28;20048;-78
2023/10/23 06:21:57;;;;;;;7.13;3.65;;;;;;;7.85;100.00;101233.28;5196198;28;20053;-79
2023/10/23 06:24:28;;;;;;;10.07;3.95;;;;;;;7.83;100.00;101229.91;5197923;28;20491;-78
2023/10/23 06:26:58;;;;;;;14.93;4.15;;;;;;;7.88;100.00;101243.69;5200680;28;20029;-78
2023/10/23 06:29:29;;;;;;;26.02;5.25;;;;;;;7.90;100.00;101241.72;5197255;28;20028;-81
2023/10/23 06:31:59;;;;;;;7.65;3.30;;;;;;;7.95;100.00;101239.47;5199802;28;20033;-79
2023/10/23 06:34:30;;;;;;;5.22;3.05;;;;;;;7.98;100.00;101239.19;5199001;28;20030;-77
2023/10/23 06:37:01;;;;;;;27.00;3.60;;;;;;;8.03;100.00;101242.28;5180988;28;20102;-79
2023/10/23 06:39:31;;;;;;;29.83;3.25;;;;;;;8.05;100.00;101247.50;5200702;28;20029;-79
2023/10/23 06:42:01;;;;;;;50.60;4.15;;;;;;;8.09;100.00;101243.56;5201172;28;20025;-79
2023/10/23 06:44:32;;;;;;;28.63;2.97;;;;;;;8.14;100.00;101245.81;5200574;28;20036;-78
2023/10/23 06:47:03;;;;;;;36.03;2.85;;;;;;;8.18;100.00;101247.19;5200535;28;20109;-78
2023/10/23 06:49:33;;;;;;;11.18;3.50;;;;;;;8.23;100.00;101248.47;5201213;28;20091;-79
2023/10/23 06:52:04;;;;;;;10.45;4.13;;;;;;;8.32;100.00;101244.09;5199782;28;20029;-79
2023/10/23 06:54:34;;;;;;;5.15;3.05;;;;;;;8.44;100.00;101245.69;5199156;28;20059;-80
2023/10/23 06:57:06;;;;;;;7.95;3.72;;;;;;;8.55;100.00;101245.50;5193759;28;20017;-80
2023/10/23 06:59:37;;;;;;;14.23;3.90;;;;;;;8.58;100.00;101239.03;5200678;28;20035;-79
2023/10/23 07:02:09;;;;;;;7.85;4.45;;;;;;;8.69;100.00;101240.72;5198413;28;20029;-79
2023/10/23 07:04:39;;;;;;;12.80;4.40;;;;;;;8.74;100.00;101241.13;5201247;28;20100;-79
2023/10/23 07:07:10;;;;;;;20.42;5.32;;;;;;;8.85;100.00;101251.66;5187558;28;20104;-79
2023/10/23 07:09:40;;;;;;;12.57;5.90;;;;;;;8.97;100.00;101249.63;5205494;28;20026;-79
2023/10/23 07:12:12;;;;;;;16.15;6.43;;;;;;;9.07;100.00;101253.13;5203724;28;20157;-79
2023/10/23 07:14:43;;;;;;;32.33;6.70;;;;;;;9.13;100.00;101257.88;5203973;28;20021;-79
2023/10/23 07:17:13;;;;;;;14.30;6.00;;;;;;;9.28;100.00;101247.53;5205201;28;20391;-79
2023/10/23 07:19:44;;;;;;;17.25;6.53;;;;;;;9.35;100.00;101251.31;5203452;28;20028;-79
2023/10/23 07:22:14;;;;;;;15.45;6.97;;;;;;;9.39;100.00;101252.72;5204470;28;20022;-83
2023/10/23 07:24:45;;;;;;;17.45;6.35;;;;;;;9.48;100.00;101246.44;5203255;28;20075;-80
2023/10/23 07:27:15;;;;;;;15.35;6.07;;;;;;;9.59;100.00;101245.41;5204679;28;20444;-79
2023/10/23 07:29:46;;;;;;;17.67;6.32;;;;;;;9.70;100.00;101249.72;5200354;28;20041;-80
2023/10/23 07:32:16;;;;;;;16.42;6.20;;;;;;;9.84;100.00;101239.31;5202676;28;20032;-80
2023/10/23 07:34:47;;;;;;;15.82;6.32;;;;;;;10.04;100.00;101239.16;5205253;28;20029;-81
2023/10/23 07:37:18;;;;;;;15.20;6.40;;;;;;;10.27;100.00;101229.69;5205200;28;20030;-80
2023/10/23 07:39:49;;;;;;;17.05;6.82;;;;;;;10.57;100.00;101230.25;5204267;28;20037;-81
2023/10/23 07:42:19;;;;;;;16.90;6.00;;;;;;;10.88;100.00;101219.88;5204904;28;20022;-82
2023/10/23 07:44:50;;;;;;;13.63;4.93;;;;;;;11.13;100.00;101229.75;5204330;28;20030;-82
2023/10/23 07:47:20;;;;;;;17.08;5.32;;;;;;;11.28;100.00;101234.50;5205432;28;20026;-82
2023/10/23 07:49:51;;;;;;;18.58;5.63;;;;;;;11.29;100.00;101226.28;5204897;28;20060;-82
2023/10/23 07:52:21;;;;;;;10.90;5.03;;;;;;;11.36;100.00;101231.88;5203264;28;20033;-82
2023/10/23 07:54:52;;;;;;;14.98;5.03;;;;;;;11.42;100.00;101231.22;5205387;28;20045;-81
2023/10/23 07:57:22;;;;;;;12.63;4.93;;;;;;;11.36;100.00;101232.72;5203711;28;20036;-82
2023/10/23 07:59:53;;;;;;;13.95;5.65;;;;;;;11.37;100.00;101234.38;5204240;28;20037;-82
2023/10/23 08:02:23;;;;;;;13.23;4.68;;;;;;;11.35;100.00;101236.41;5203817;28;20041;-81
2023/10/23 08:04:54;;;;;;;10.70;5.03;;;;;;;11.38;100.00;101235.22;5203782;28;20028;-82
2023/10/23 08:07:24;;;;;;;11.35;4.45;;;;;;;11.36;100.00;101231.88;5182556;28;20032;-81
2023/10/23 08:09:55;;;;;;;19.35;4.72;;;;;;;11.36;100.00;101232.72;5203984;28;20029;-81
2023/10/23 08:12:25;;;;;;;18.80;5.40;;;;;;;11.39;100.00;101224.31;5193063;28;20021;-81
2023/10/23 08:14:56;;;;;;;15.25;5.10;;;;;;;11.50;100.00;101228.56;5204973;28;20033;-81
2023/10/23 08:17:26;;;;;;;18.30;5.07;;;;;;;11.54;100.00;101227.22;5203244;28;20033;-81
2023/10/23 08:19:58;;;;;;;13.77;5.20;;;;;;;11.57;100.00;101224.22;5180758;28;20029;-81
2023/10/23 08:22:28;;;;;;;13.77;5.03;;;;;;;11.68;100.00;101223.91;5204373;28;20017;-81
2023/10/23 08:24:59;;;;;;;16.20;5.32;;;;;;;11.83;100.00;101228.66;5178484;28;20020;-81
2023/10/23 08:27:30;;;;;;;17.35;4.78;;;;;;;12.03;100.00;101237.28;5204437;28;20017;-82
2023/10/23 08:30:00;;;;;;;19.63;5.45;;;;;;;12.18;100.00;101236.44;5202036;28;20379;-82
2023/10/23 08:32:32;;;;;;;14.30;5.00;;;;;;;12.23;100.00;101235.09;5204402;28;20026;-82
2023/10/23 08:35:03;;;;;;;14.70;5.35;;;;;;;12.39;100.00;101240.47;5205233;28;20021;-82
2023/10/23 08:37:34;;;;;;;9.18;4.70;;;;;;;12.41;100.00;101242.00;5201938;28;20102;-82
2023/10/23 08:40:06;;;;;;;16.80;4.88;;;;;;;12.43;100.00;101234.59;5183275;28;20044;-82
2023/10/23 08:42:37;;;;;;;14.43;5.63;;;;;;;12.58;100.00;101237.44;5191232;28;20423;-83
2023/10/23 08:45:07;;;;;;;13.73;5.50;;;;;;;12.74;100.00;101233.06;5202034;28;20018;-83
2023/10/23 08:47:38;;;;;;;13.40;4.70;;;;;;;12.81;100.00;101232.22;5198118;28;20109;-83
2023/10/23 08:50:10;;;;;;;14.75;5.30;;;;;;;13.00;100.00;101230.13;5179318;28;20511;-83
2023/10/23 08:52:45;;;;;;;17.10;5.50;;;;;;;13.15;100.00;101225.69;5204523;28;20029;-83
2023/10/23 08:55:18;;;;;;;18.98;5.05;;;;;;;13.31;100.00;101216.78;5199867;28;20017;-83
2023/10/23 08:57:52;;;;;;;17.33;4.85;;;;;;;13.42;100.00;101214.53;5199922;28;20021;-83
2023/10/23 09:00:23;;;;;;;15.40;5.03;;;;;;;13.55;100.00;101213.94;5200170;28;20543;-82
2023/10/23 09:02:54;;;;;;;14.02;4.80;;;;;;;13.65;100.00;101205.63;5178797;28;20027;-82
2023/10/23 09:05:25;;;;;;;13.02;4.30;;;;;;;13.73;100.00;101195.63;5201454;28;20104;-82
2023/10/23 09:07:56;;;;;;;15.68;4.20;;;;;;;13.76;100.00;101204.41;5199008;28;20318;-82
2023/10/23 09:10:26;;;;;;;16.85;4.43;;;;;;;13.86;100.00;101199.63;5193082;28;20396;-83
2023/10/23 09:12:57;;;;;;;14.30;4.45;;;;;;;13.95;100.00;101193.94;5168747;28;20018;-83
2023/10/23 09:15:27;;;;;;;14.57;4.65;;;;;;;14.03;100.00;101194.94;5199203;28;20499;-82
2023/10/23 09:17:58;;;;;;;20.00;4.13;;;;;;;14.03;100.00;101184.97;5203852;28;20079;-82
2023/10/23 09:20:29;;;;;;;11.27;3.72;;;;;;;14.08;100.00;101187.97;5197720;28;20056;-83
2023/10/23 09:23:00;;;;;;;15.73;4.22;;;;;;;14.13;100.00;101184.72;5203311;28;20029;-82
2023/10/23 09:25:30;;;;;;;12.27;3.80;;;;;;;14.03;100.00;101187.69;5196901;28;20081;-82
2023/10/23 09:28:01;;;;;;;15.73;4.70;;;;;;;14.05;100.00;101185.63;5184014;28;20029;-82
2023/10/23 09:30:31;;;;;;;15.15;4.22;;;;;;;14.08;100.00;101187.13;5204676;28;20361;-85
2023/10/23 09:33:02;;;;;;;11.48;4.25;;;;;;;14.18;100.00;101191.25;5182789;28;20022;-82
2023/10/23 09:35:33;;;;;;;11.32;4.20;;;;;;;14.28;100.00;101191.00;5205541;28;20029;-82
2023/10/23 09:38:12;;;;;;;9.45;3.70;;;;;;;14.29;100.00;101191.84;5203879;28;20018;-83
2023/10/23 09:40:44;;;;;;;11.40;3.67;;;;;;;14.22;100.00;101186.34;5197650;28;20495;-82
2023/10/23 09:43:15;;;;;;;10.07;4.15;;;;;;;14.18;100.00;101190.44;5197529;28;20484;-82
2023/10/23 09:45:47;;;;;;;11.88;3.92;;;;;;;14.14;100.00;101184.53;5198796;28;20090;-82
2023/10/23 09:48:20;;;;;;;12.70;4.35;;;;;;;14.15;100.00;101186.22;5200127;28;20585;-83
2023/10/23 09:50:51;;;;;;;9.05;3.35;;;;;;;14.16;100.00;101189.78;5195102;28;20018;-82
2023/10/23 09:53:23;;;;;;;10.05;4.07;;;;;;;14.15;100.00;101175.41;5165990;28;20022;-84
2023/10/23 09:55:55;;;;;;;17.77;5.00;;;;;;;14.23;100.00;101172.66;5203350;28;20079;-82
2023/10/23 09:58:32;;;;;;;18.75;3.90;;;;;;;14.31;100.00;101174.47;5198826;28;20029;-82
2023/10/23 10:01:05;;;;;;;7.85;3.30;;;;;;;14.37;100.00;101172.91;5191309;28;20017;-82
2023/10/23 10:03:39;;;;;;;13.23;3.83;;;;;;;14.47;100.00;101159.97;5197482;28;20706;-82
2023/10/23 10:06:15;;;;;;;16.40;3.70;;;;;;;14.53;100.00;101159.25;5200191;28;20434;-82
2023/10/23 10:08:50;;;;;;;11.40;3.63;;;;;;;14.60;100.00;101143.16;5201412;28;20021;-82
2023/10/23 10:11:21;;;;;;;12.07;4.10;;;;;;;14.62;100.00;101147.34;5195397;28;20085;-82
2023/10/23 10:13:53;;;;;;;12.02;3.60;;;;;;;14.70;100.00;101139.16;5201502;28;20463;-82
2023/10/23 10:16:23;;;;;;;17.15;3.88;;;;;;;14.73;100.00;101133.38;5202390;28;20034;-82
2023/10/23 10:18:54;;;;;;;21.10;4.50;;;;;;;14.73;100.00;101135.25;5185243;28;20380;-83
2023/10/23 10:21:27;;;;;;;12.52;3.50;;;;;;;14.73;100.00;101130.69;5197425;28;20045;-84
2023/10/23 10:24:00;;;;;;;11.18;3.90;;;;;;;14.75;100.00;101130.47;5193881;28;20052;-82
2023/10/23 10:26:33;;;;;;;18.08;3.72;;;;;;;14.66;100.00;101129.75;5194089;28;20018;-82
2023/10/23 10:29:03;;;;;;;13.00;3.47;;;;;;;14.75;100.00;101123.22;5197871;28;20033;-81
2023/10/23 10:31:59;;;;;;;16.10;4.00;;;;;;;14.76;100.00;101119.53;5196402;28;20660;-81
2023/10/23 10:34:31;;;;;;;;;;;;;;;14.83;100.00;101119.59;5195624;28;20088;-81
2023/10/23 10:37:04;;;;;;;12.55;3.70;;;;;;;14.84;100.00;101115.88;5194403;28;19921;-80
2023/10/23 10:40:03;;;;;;;13.70;4.05;;;;;;;14.85;100.00;101112.13;5195084;28;20615;-82
2023/10/23 10:42:36;;;;;;;12.98;4.10;;;;;;;14.88;100.00;101110.94;5205366;28;20021;-83
2023/10/23 10:45:09;;;;;;;12.75;4.80;;;;;;;14.92;100.00;101112.25;5200008;28;20105;-82
2023/10/23 10:47:49;;;;;;;14.13;4.63;;;;;;;14.96;100.00;101098.16;5195995;28;20109;-81
2023/10/23 10:50:32;;;;;;;14.93;4.60;;;;;;;14.99;100.00;101099.63;5206305;28;20025;-80
2023/10/23 10:53:05;;;;;;;11.15;4.40;;;;;;;14.91;100.00;101099.72;5199400;28;20032;-79
2023/10/23 10:55:36;;;;;;;12.10;4.30;;;;;;;14.92;100.00;101085.22;5198839;28;20022;-83
2023/10/23 10:58:10;;;;;;;17.48;4.25;;;;;;;14.92;100.00;101080.66;5204281;28;20021;-83
2023/10/23 11:00:40;;;;;;;16.02;4.20;;;;;;;14.88;100.00;101070.41;5199248;28;20037;-83
2023/10/23 11:03:11;;;;;;;14.57;3.55;;;;;;;14.96;100.00;101063.06;5206240;28;20026;-83
2023/10/23 11:05:47;;;;;;;15.52;3.90;;;;;;;14.90;100.00;101066.47;5189926;28;20010;-82
2023/10/23 11:08:18;;;;;;;10.38;2.95;;;;;;;14.88;100.00;101056.91;5199852;28;20049;-81
2023/10/23 11:10:48;;;;;;;12.48;3.72;;;;;;;14.99;100.00;101051.00;5186222;28;20143;-79
2023/10/23 11:13:19;;;;;;;14.82;4.03;;;;;;;15.02;100.00;101040.66;5200731;28;20041;-79
2023/10/23 11:15:55;;;;;;;15.60;3.58;;;;;;;15.12;100.00;101031.44;5202382;28;20022;-83
2023/10/23 11:18:27;;;;;;;14.57;3.97;;;;;;;15.15;100.00;101025.63;5204971;28;20112;-81
2023/10/23 11:21:00;;;;;;;8.80;3.10;;;;;;;15.19;100.00;101026.91;5199849;28;20380;-84
2023/10/23 11:23:31;;;;;;;16.35;3.80;;;;;;;15.24;100.00;101017.19;5181225;28;20025;-85
2023/10/23 11:26:02;;;;;;;12.68;3.80;;;;;;;15.21;100.00;101016.75;5204718;28;20018;-84
2023/10/23 11:28:32;;;;;;;14.27;3.47;;;;;;;15.28;100.00;101002.28;5187785;28;20041;-85
2023/10/23 11:31:03;;;;;;;14.80;4.07;;;;;;;15.27;100.00;101006.00;5205166;28;20026;-84
2023/10/23 11:33:35;;;;;;;10.65;3.15;;;;;;;15.23;100.00;101002.03;5201721;28;20060;-84
2023/10/23 11:36:06;;;;;;;16.08;3.72;;;;;;;15.31;100.00;101000.19;5209655;28;20017;-85